<?xml version="1.0" encoding="UTF-8" standalone="no" ?>
<gpx xmlns="http://www.topografix.com/GPX/1/1" xmlns:xsi="http://www.w3.org/2001/XMLSchema-instance" xsi:schemaLocation="http://www.topografix.com/GPX/1/1 http://www.topografix.com/GPX/1/1/gpx.xsd" version="1.1" creator="VisuGPX - https://www.visugpx.com">
  <metadata>
    <name>Petite sortie CaP derrière Eybens</name>
    <desc><![CDATA[Joli montée (bitume) et descente (bois)]]></desc>
  </metadata>
  <trk>
    <name><![CDATA[2011-05-11-01_entrainement VTT+CAP_partieCAP]]></name>
    <trkseg>
      <trkpt lat="45.15941" lon="5.74717">
        <ele>229.1</ele>
        <time>2011-05-11T09:18:18Z</time>
      </trkpt>
      <trkpt lat="45.15937" lon="5.74725">
        <ele>229.3</ele>
        <time>2011-05-11T09:18:21Z</time>
      </trkpt>
      <trkpt lat="45.15934" lon="5.74735">
        <ele>229.3</ele>
        <time>2011-05-11T09:18:24Z</time>
      </trkpt>
      <trkpt lat="45.15934" lon="5.74745">
        <ele>229.5</ele>
        <time>2011-05-11T09:18:27Z</time>
      </trkpt>
      <trkpt lat="45.15936" lon="5.74757">
        <ele>229.5</ele>
        <time>2011-05-11T09:18:30Z</time>
      </trkpt>
      <trkpt lat="45.15941" lon="5.74765">
        <ele>229.8</ele>
        <time>2011-05-11T09:18:34Z</time>
      </trkpt>
      <trkpt lat="45.15949" lon="5.7477">
        <ele>230.5</ele>
        <time>2011-05-11T09:18:38Z</time>
      </trkpt>
      <trkpt lat="45.15951" lon="5.74772">
        <ele>230.9</ele>
        <time>2011-05-11T09:18:39Z</time>
      </trkpt>
      <trkpt lat="45.15961" lon="5.74786">
        <ele>230.8</ele>
        <time>2011-05-11T09:18:45Z</time>
      </trkpt>
      <trkpt lat="45.15965" lon="5.74797">
        <ele>231.1</ele>
        <time>2011-05-11T09:18:49Z</time>
      </trkpt>
      <trkpt lat="45.15968" lon="5.74805">
        <ele>230.7</ele>
        <time>2011-05-11T09:18:52Z</time>
      </trkpt>
      <trkpt lat="45.15975" lon="5.74812">
        <ele>229.7</ele>
        <time>2011-05-11T09:18:55Z</time>
      </trkpt>
      <trkpt lat="45.15981" lon="5.74819">
        <ele>229.6</ele>
        <time>2011-05-11T09:18:58Z</time>
      </trkpt>
      <trkpt lat="45.15986" lon="5.74826">
        <ele>230.1</ele>
        <time>2011-05-11T09:19:01Z</time>
      </trkpt>
      <trkpt lat="45.15991" lon="5.74836">
        <ele>229.9</ele>
        <time>2011-05-11T09:19:04Z</time>
      </trkpt>
      <trkpt lat="45.15996" lon="5.74843">
        <ele>229.4</ele>
        <time>2011-05-11T09:19:07Z</time>
      </trkpt>
      <trkpt lat="45.16002" lon="5.74852">
        <ele>229.1</ele>
        <time>2011-05-11T09:19:11Z</time>
      </trkpt>
      <trkpt lat="45.16007" lon="5.74859">
        <ele>229</ele>
        <time>2011-05-11T09:19:14Z</time>
      </trkpt>
      <trkpt lat="45.16012" lon="5.74867">
        <ele>228.3</ele>
        <time>2011-05-11T09:19:17Z</time>
      </trkpt>
      <trkpt lat="45.16018" lon="5.74873">
        <ele>228.2</ele>
        <time>2011-05-11T09:19:20Z</time>
      </trkpt>
      <trkpt lat="45.16026" lon="5.7488">
        <ele>228.2</ele>
        <time>2011-05-11T09:19:24Z</time>
      </trkpt>
      <trkpt lat="45.16032" lon="5.74888">
        <ele>227.9</ele>
        <time>2011-05-11T09:19:28Z</time>
      </trkpt>
      <trkpt lat="45.16036" lon="5.74896">
        <ele>227.8</ele>
        <time>2011-05-11T09:19:31Z</time>
      </trkpt>
      <trkpt lat="45.16036" lon="5.74908">
        <ele>227.7</ele>
        <time>2011-05-11T09:19:35Z</time>
      </trkpt>
      <trkpt lat="45.16032" lon="5.74916">
        <ele>228.6</ele>
        <time>2011-05-11T09:19:38Z</time>
      </trkpt>
      <trkpt lat="45.16027" lon="5.74923">
        <ele>228.3</ele>
        <time>2011-05-11T09:19:41Z</time>
      </trkpt>
      <trkpt lat="45.16025" lon="5.74925">
        <ele>228.2</ele>
        <time>2011-05-11T09:19:42Z</time>
      </trkpt>
      <trkpt lat="45.16018" lon="5.74939">
        <ele>227.7</ele>
        <time>2011-05-11T09:19:47Z</time>
      </trkpt>
      <trkpt lat="45.16014" lon="5.74947">
        <ele>228.6</ele>
        <time>2011-05-11T09:19:50Z</time>
      </trkpt>
      <trkpt lat="45.16008" lon="5.74957">
        <ele>230.4</ele>
        <time>2011-05-11T09:19:54Z</time>
      </trkpt>
      <trkpt lat="45.16003" lon="5.74966">
        <ele>229</ele>
        <time>2011-05-11T09:19:58Z</time>
      </trkpt>
      <trkpt lat="45.16001" lon="5.74978">
        <ele>229.9</ele>
        <time>2011-05-11T09:20:02Z</time>
      </trkpt>
      <trkpt lat="45.16001" lon="5.7499">
        <ele>230.8</ele>
        <time>2011-05-11T09:20:06Z</time>
      </trkpt>
      <trkpt lat="45.16001" lon="5.75003">
        <ele>231.1</ele>
        <time>2011-05-11T09:20:10Z</time>
      </trkpt>
      <trkpt lat="45.16005" lon="5.75011">
        <ele>231.8</ele>
        <time>2011-05-11T09:20:13Z</time>
      </trkpt>
      <trkpt lat="45.16009" lon="5.75018">
        <ele>232.1</ele>
        <time>2011-05-11T09:20:16Z</time>
      </trkpt>
      <trkpt lat="45.16015" lon="5.75024">
        <ele>232.3</ele>
        <time>2011-05-11T09:20:19Z</time>
      </trkpt>
      <trkpt lat="45.16022" lon="5.75032">
        <ele>232.6</ele>
        <time>2011-05-11T09:20:23Z</time>
      </trkpt>
      <trkpt lat="45.16023" lon="5.75042">
        <ele>233.6</ele>
        <time>2011-05-11T09:20:26Z</time>
      </trkpt>
      <trkpt lat="45.16023" lon="5.75054">
        <ele>234.7</ele>
        <time>2011-05-11T09:20:30Z</time>
      </trkpt>
      <trkpt lat="45.16021" lon="5.75064">
        <ele>235.3</ele>
        <time>2011-05-11T09:20:33Z</time>
      </trkpt>
      <trkpt lat="45.16018" lon="5.75072">
        <ele>235.5</ele>
        <time>2011-05-11T09:20:36Z</time>
      </trkpt>
      <trkpt lat="45.16014" lon="5.75081">
        <ele>235.5</ele>
        <time>2011-05-11T09:20:39Z</time>
      </trkpt>
      <trkpt lat="45.16008" lon="5.75088">
        <ele>235.6</ele>
        <time>2011-05-11T09:20:42Z</time>
      </trkpt>
      <trkpt lat="45.16007" lon="5.7509">
        <ele>236</ele>
        <time>2011-05-11T09:20:43Z</time>
      </trkpt>
      <trkpt lat="45.15998" lon="5.75103">
        <ele>236.3</ele>
        <time>2011-05-11T09:20:48Z</time>
      </trkpt>
      <trkpt lat="45.15994" lon="5.75112">
        <ele>237.1</ele>
        <time>2011-05-11T09:20:51Z</time>
      </trkpt>
      <trkpt lat="45.15989" lon="5.75121">
        <ele>237</ele>
        <time>2011-05-11T09:20:54Z</time>
      </trkpt>
      <trkpt lat="45.15984" lon="5.7513">
        <ele>236.7</ele>
        <time>2011-05-11T09:20:57Z</time>
      </trkpt>
      <trkpt lat="45.15979" lon="5.75139">
        <ele>236.3</ele>
        <time>2011-05-11T09:21:00Z</time>
      </trkpt>
      <trkpt lat="45.15972" lon="5.75142">
        <ele>235.6</ele>
        <time>2011-05-11T09:21:03Z</time>
      </trkpt>
      <trkpt lat="45.15966" lon="5.75137">
        <ele>234.6</ele>
        <time>2011-05-11T09:21:06Z</time>
      </trkpt>
      <trkpt lat="45.15959" lon="5.75131">
        <ele>235.1</ele>
        <time>2011-05-11T09:21:10Z</time>
      </trkpt>
      <trkpt lat="45.15952" lon="5.75133">
        <ele>234</ele>
        <time>2011-05-11T09:21:13Z</time>
      </trkpt>
      <trkpt lat="45.15946" lon="5.75135">
        <ele>232.7</ele>
        <time>2011-05-11T09:21:15Z</time>
      </trkpt>
      <trkpt lat="45.15938" lon="5.7514">
        <ele>231</ele>
        <time>2011-05-11T09:21:18Z</time>
      </trkpt>
      <trkpt lat="45.15931" lon="5.75145">
        <ele>230</ele>
        <time>2011-05-11T09:21:21Z</time>
      </trkpt>
      <trkpt lat="45.15925" lon="5.75152">
        <ele>229.6</ele>
        <time>2011-05-11T09:21:24Z</time>
      </trkpt>
      <trkpt lat="45.15919" lon="5.75158">
        <ele>229.4</ele>
        <time>2011-05-11T09:21:27Z</time>
      </trkpt>
      <trkpt lat="45.15913" lon="5.75165">
        <ele>229.1</ele>
        <time>2011-05-11T09:21:30Z</time>
      </trkpt>
      <trkpt lat="45.15907" lon="5.75171">
        <ele>229.7</ele>
        <time>2011-05-11T09:21:33Z</time>
      </trkpt>
      <trkpt lat="45.15902" lon="5.75177">
        <ele>229.2</ele>
        <time>2011-05-11T09:21:36Z</time>
      </trkpt>
      <trkpt lat="45.15896" lon="5.75183">
        <ele>229.6</ele>
        <time>2011-05-11T09:21:39Z</time>
      </trkpt>
      <trkpt lat="45.15891" lon="5.75189">
        <ele>229.5</ele>
        <time>2011-05-11T09:21:42Z</time>
      </trkpt>
      <trkpt lat="45.15885" lon="5.75196">
        <ele>229.6</ele>
        <time>2011-05-11T09:21:45Z</time>
      </trkpt>
      <trkpt lat="45.15883" lon="5.75198">
        <ele>229.6</ele>
        <time>2011-05-11T09:21:46Z</time>
      </trkpt>
      <trkpt lat="45.15874" lon="5.7521">
        <ele>229.7</ele>
        <time>2011-05-11T09:21:51Z</time>
      </trkpt>
      <trkpt lat="45.15868" lon="5.75217">
        <ele>229.1</ele>
        <time>2011-05-11T09:21:54Z</time>
      </trkpt>
      <trkpt lat="45.15863" lon="5.75223">
        <ele>229.3</ele>
        <time>2011-05-11T09:21:57Z</time>
      </trkpt>
      <trkpt lat="45.15857" lon="5.7523">
        <ele>229.4</ele>
        <time>2011-05-11T09:22:00Z</time>
      </trkpt>
      <trkpt lat="45.15851" lon="5.75236">
        <ele>229.4</ele>
        <time>2011-05-11T09:22:03Z</time>
      </trkpt>
      <trkpt lat="45.15846" lon="5.75243">
        <ele>230.1</ele>
        <time>2011-05-11T09:22:06Z</time>
      </trkpt>
      <trkpt lat="45.1584" lon="5.7525">
        <ele>230.8</ele>
        <time>2011-05-11T09:22:09Z</time>
      </trkpt>
      <trkpt lat="45.15833" lon="5.75257">
        <ele>230.4</ele>
        <time>2011-05-11T09:22:12Z</time>
      </trkpt>
      <trkpt lat="45.15827" lon="5.75264">
        <ele>230.4</ele>
        <time>2011-05-11T09:22:15Z</time>
      </trkpt>
      <trkpt lat="45.15821" lon="5.75271">
        <ele>230.3</ele>
        <time>2011-05-11T09:22:18Z</time>
      </trkpt>
      <trkpt lat="45.15814" lon="5.75277">
        <ele>230</ele>
        <time>2011-05-11T09:22:21Z</time>
      </trkpt>
      <trkpt lat="45.15807" lon="5.75282">
        <ele>229.5</ele>
        <time>2011-05-11T09:22:24Z</time>
      </trkpt>
      <trkpt lat="45.15801" lon="5.75286">
        <ele>230</ele>
        <time>2011-05-11T09:22:27Z</time>
      </trkpt>
      <trkpt lat="45.15794" lon="5.75291">
        <ele>229.6</ele>
        <time>2011-05-11T09:22:30Z</time>
      </trkpt>
      <trkpt lat="45.15787" lon="5.75296">
        <ele>229.4</ele>
        <time>2011-05-11T09:22:33Z</time>
      </trkpt>
      <trkpt lat="45.15781" lon="5.753">
        <ele>229.9</ele>
        <time>2011-05-11T09:22:36Z</time>
      </trkpt>
      <trkpt lat="45.15775" lon="5.75306">
        <ele>230</ele>
        <time>2011-05-11T09:22:40Z</time>
      </trkpt>
      <trkpt lat="45.15769" lon="5.75312">
        <ele>230.5</ele>
        <time>2011-05-11T09:22:43Z</time>
      </trkpt>
      <trkpt lat="45.15763" lon="5.75318">
        <ele>230.6</ele>
        <time>2011-05-11T09:22:46Z</time>
      </trkpt>
      <trkpt lat="45.15761" lon="5.7532">
        <ele>230.1</ele>
        <time>2011-05-11T09:22:47Z</time>
      </trkpt>
      <trkpt lat="45.15751" lon="5.75332">
        <ele>230.4</ele>
        <time>2011-05-11T09:22:52Z</time>
      </trkpt>
      <trkpt lat="45.15745" lon="5.75339">
        <ele>230.4</ele>
        <time>2011-05-11T09:22:55Z</time>
      </trkpt>
      <trkpt lat="45.15738" lon="5.75345">
        <ele>230.5</ele>
        <time>2011-05-11T09:22:58Z</time>
      </trkpt>
      <trkpt lat="45.15733" lon="5.75352">
        <ele>230</ele>
        <time>2011-05-11T09:23:01Z</time>
      </trkpt>
      <trkpt lat="45.15727" lon="5.75359">
        <ele>230</ele>
        <time>2011-05-11T09:23:04Z</time>
      </trkpt>
      <trkpt lat="45.15723" lon="5.75368">
        <ele>230.4</ele>
        <time>2011-05-11T09:23:07Z</time>
      </trkpt>
      <trkpt lat="45.15722" lon="5.75378">
        <ele>230.9</ele>
        <time>2011-05-11T09:23:10Z</time>
      </trkpt>
      <trkpt lat="45.15723" lon="5.75388">
        <ele>230.5</ele>
        <time>2011-05-11T09:23:13Z</time>
      </trkpt>
      <trkpt lat="45.15727" lon="5.75397">
        <ele>231</ele>
        <time>2011-05-11T09:23:16Z</time>
      </trkpt>
      <trkpt lat="45.15731" lon="5.75405">
        <ele>230.8</ele>
        <time>2011-05-11T09:23:19Z</time>
      </trkpt>
      <trkpt lat="45.15737" lon="5.75414">
        <ele>230.5</ele>
        <time>2011-05-11T09:23:23Z</time>
      </trkpt>
      <trkpt lat="45.15733" lon="5.75422">
        <ele>230.7</ele>
        <time>2011-05-11T09:23:27Z</time>
      </trkpt>
      <trkpt lat="45.15727" lon="5.75428">
        <ele>230.4</ele>
        <time>2011-05-11T09:23:30Z</time>
      </trkpt>
      <trkpt lat="45.15721" lon="5.75435">
        <ele>230.3</ele>
        <time>2011-05-11T09:23:33Z</time>
      </trkpt>
      <trkpt lat="45.15713" lon="5.75439">
        <ele>230.9</ele>
        <time>2011-05-11T09:23:37Z</time>
      </trkpt>
      <trkpt lat="45.15707" lon="5.75444">
        <ele>230.3</ele>
        <time>2011-05-11T09:23:40Z</time>
      </trkpt>
      <trkpt lat="45.15701" lon="5.7545">
        <ele>230.6</ele>
        <time>2011-05-11T09:23:43Z</time>
      </trkpt>
      <trkpt lat="45.15695" lon="5.75457">
        <ele>230.4</ele>
        <time>2011-05-11T09:23:46Z</time>
      </trkpt>
      <trkpt lat="45.1569" lon="5.75464">
        <ele>230.8</ele>
        <time>2011-05-11T09:23:49Z</time>
      </trkpt>
      <trkpt lat="45.15689" lon="5.75467">
        <ele>230.9</ele>
        <time>2011-05-11T09:23:50Z</time>
      </trkpt>
      <trkpt lat="45.15679" lon="5.75478">
        <ele>230.9</ele>
        <time>2011-05-11T09:23:55Z</time>
      </trkpt>
      <trkpt lat="45.15673" lon="5.75483">
        <ele>230.6</ele>
        <time>2011-05-11T09:23:58Z</time>
      </trkpt>
      <trkpt lat="45.15667" lon="5.7549">
        <ele>230.5</ele>
        <time>2011-05-11T09:24:01Z</time>
      </trkpt>
      <trkpt lat="45.15661" lon="5.75497">
        <ele>230.4</ele>
        <time>2011-05-11T09:24:04Z</time>
      </trkpt>
      <trkpt lat="45.15656" lon="5.75503">
        <ele>230.7</ele>
        <time>2011-05-11T09:24:07Z</time>
      </trkpt>
      <trkpt lat="45.15652" lon="5.75512">
        <ele>231.4</ele>
        <time>2011-05-11T09:24:10Z</time>
      </trkpt>
      <trkpt lat="45.15649" lon="5.75521">
        <ele>231.3</ele>
        <time>2011-05-11T09:24:13Z</time>
      </trkpt>
      <trkpt lat="45.15648" lon="5.75531">
        <ele>231.6</ele>
        <time>2011-05-11T09:24:16Z</time>
      </trkpt>
      <trkpt lat="45.1565" lon="5.75543">
        <ele>232</ele>
        <time>2011-05-11T09:24:20Z</time>
      </trkpt>
      <trkpt lat="45.15654" lon="5.75551">
        <ele>231.4</ele>
        <time>2011-05-11T09:24:23Z</time>
      </trkpt>
      <trkpt lat="45.15659" lon="5.75559">
        <ele>231.6</ele>
        <time>2011-05-11T09:24:26Z</time>
      </trkpt>
      <trkpt lat="45.15663" lon="5.75568">
        <ele>231.7</ele>
        <time>2011-05-11T09:24:29Z</time>
      </trkpt>
      <trkpt lat="45.15668" lon="5.75577">
        <ele>231.8</ele>
        <time>2011-05-11T09:24:32Z</time>
      </trkpt>
      <trkpt lat="45.15668" lon="5.75588">
        <ele>232</ele>
        <time>2011-05-11T09:24:35Z</time>
      </trkpt>
      <trkpt lat="45.15664" lon="5.75596">
        <ele>232.2</ele>
        <time>2011-05-11T09:24:38Z</time>
      </trkpt>
      <trkpt lat="45.15659" lon="5.75604">
        <ele>232.4</ele>
        <time>2011-05-11T09:24:41Z</time>
      </trkpt>
      <trkpt lat="45.15655" lon="5.75614">
        <ele>232.1</ele>
        <time>2011-05-11T09:24:44Z</time>
      </trkpt>
      <trkpt lat="45.15651" lon="5.75623">
        <ele>231.8</ele>
        <time>2011-05-11T09:24:47Z</time>
      </trkpt>
      <trkpt lat="45.15646" lon="5.75631">
        <ele>231.3</ele>
        <time>2011-05-11T09:24:50Z</time>
      </trkpt>
      <trkpt lat="45.15644" lon="5.75633">
        <ele>231.3</ele>
        <time>2011-05-11T09:24:51Z</time>
      </trkpt>
      <trkpt lat="45.15635" lon="5.75645">
        <ele>231</ele>
        <time>2011-05-11T09:24:56Z</time>
      </trkpt>
      <trkpt lat="45.15629" lon="5.75652">
        <ele>231.5</ele>
        <time>2011-05-11T09:24:59Z</time>
      </trkpt>
      <trkpt lat="45.15623" lon="5.75659">
        <ele>231</ele>
        <time>2011-05-11T09:25:02Z</time>
      </trkpt>
      <trkpt lat="45.15618" lon="5.75666">
        <ele>230.3</ele>
        <time>2011-05-11T09:25:05Z</time>
      </trkpt>
      <trkpt lat="45.15613" lon="5.75672">
        <ele>231.3</ele>
        <time>2011-05-11T09:25:08Z</time>
      </trkpt>
      <trkpt lat="45.15607" lon="5.75679">
        <ele>231.7</ele>
        <time>2011-05-11T09:25:11Z</time>
      </trkpt>
      <trkpt lat="45.15601" lon="5.75686">
        <ele>231.6</ele>
        <time>2011-05-11T09:25:14Z</time>
      </trkpt>
      <trkpt lat="45.15596" lon="5.75694">
        <ele>231.9</ele>
        <time>2011-05-11T09:25:17Z</time>
      </trkpt>
      <trkpt lat="45.1559" lon="5.75701">
        <ele>232.1</ele>
        <time>2011-05-11T09:25:20Z</time>
      </trkpt>
      <trkpt lat="45.15585" lon="5.75708">
        <ele>231.8</ele>
        <time>2011-05-11T09:25:23Z</time>
      </trkpt>
      <trkpt lat="45.15579" lon="5.75715">
        <ele>231.5</ele>
        <time>2011-05-11T09:25:26Z</time>
      </trkpt>
      <trkpt lat="45.15574" lon="5.75722">
        <ele>231.6</ele>
        <time>2011-05-11T09:25:29Z</time>
      </trkpt>
      <trkpt lat="45.15569" lon="5.75728">
        <ele>231.5</ele>
        <time>2011-05-11T09:25:32Z</time>
      </trkpt>
      <trkpt lat="45.15563" lon="5.75734">
        <ele>231.2</ele>
        <time>2011-05-11T09:25:35Z</time>
      </trkpt>
      <trkpt lat="45.15556" lon="5.75735">
        <ele>231.7</ele>
        <time>2011-05-11T09:25:38Z</time>
      </trkpt>
      <trkpt lat="45.15549" lon="5.75734">
        <ele>231.7</ele>
        <time>2011-05-11T09:25:41Z</time>
      </trkpt>
      <trkpt lat="45.15542" lon="5.75733">
        <ele>231.4</ele>
        <time>2011-05-11T09:25:44Z</time>
      </trkpt>
      <trkpt lat="45.15535" lon="5.75732">
        <ele>231.6</ele>
        <time>2011-05-11T09:25:47Z</time>
      </trkpt>
      <trkpt lat="45.15528" lon="5.7573">
        <ele>231.4</ele>
        <time>2011-05-11T09:25:50Z</time>
      </trkpt>
      <trkpt lat="45.15521" lon="5.75729">
        <ele>232.1</ele>
        <time>2011-05-11T09:25:53Z</time>
      </trkpt>
      <trkpt lat="45.15518" lon="5.75729">
        <ele>231.8</ele>
        <time>2011-05-11T09:25:54Z</time>
      </trkpt>
      <trkpt lat="45.15506" lon="5.75727">
        <ele>230.3</ele>
        <time>2011-05-11T09:25:59Z</time>
      </trkpt>
      <trkpt lat="45.15499" lon="5.75726">
        <ele>231.2</ele>
        <time>2011-05-11T09:26:02Z</time>
      </trkpt>
      <trkpt lat="45.15492" lon="5.75725">
        <ele>230.7</ele>
        <time>2011-05-11T09:26:05Z</time>
      </trkpt>
      <trkpt lat="45.15485" lon="5.75723">
        <ele>230.5</ele>
        <time>2011-05-11T09:26:08Z</time>
      </trkpt>
      <trkpt lat="45.15478" lon="5.75721">
        <ele>231.5</ele>
        <time>2011-05-11T09:26:11Z</time>
      </trkpt>
      <trkpt lat="45.1547" lon="5.75719">
        <ele>230.9</ele>
        <time>2011-05-11T09:26:14Z</time>
      </trkpt>
      <trkpt lat="45.15463" lon="5.75718">
        <ele>231.4</ele>
        <time>2011-05-11T09:26:17Z</time>
      </trkpt>
      <trkpt lat="45.15456" lon="5.75716">
        <ele>232.3</ele>
        <time>2011-05-11T09:26:20Z</time>
      </trkpt>
      <trkpt lat="45.1545" lon="5.75715">
        <ele>232.5</ele>
        <time>2011-05-11T09:26:23Z</time>
      </trkpt>
      <trkpt lat="45.15443" lon="5.75713">
        <ele>232.5</ele>
        <time>2011-05-11T09:26:26Z</time>
      </trkpt>
      <trkpt lat="45.15436" lon="5.75713">
        <ele>232.9</ele>
        <time>2011-05-11T09:26:29Z</time>
      </trkpt>
      <trkpt lat="45.15429" lon="5.75715">
        <ele>233.2</ele>
        <time>2011-05-11T09:26:32Z</time>
      </trkpt>
      <trkpt lat="45.15422" lon="5.75719">
        <ele>233.5</ele>
        <time>2011-05-11T09:26:35Z</time>
      </trkpt>
      <trkpt lat="45.15416" lon="5.75724">
        <ele>234.4</ele>
        <time>2011-05-11T09:26:38Z</time>
      </trkpt>
      <trkpt lat="45.1541" lon="5.7573">
        <ele>234.1</ele>
        <time>2011-05-11T09:26:41Z</time>
      </trkpt>
      <trkpt lat="45.15404" lon="5.75735">
        <ele>234.3</ele>
        <time>2011-05-11T09:26:44Z</time>
      </trkpt>
      <trkpt lat="45.15398" lon="5.75741">
        <ele>234.6</ele>
        <time>2011-05-11T09:26:47Z</time>
      </trkpt>
      <trkpt lat="45.15392" lon="5.75747">
        <ele>234.9</ele>
        <time>2011-05-11T09:26:50Z</time>
      </trkpt>
      <trkpt lat="45.15387" lon="5.75754">
        <ele>235.1</ele>
        <time>2011-05-11T09:26:53Z</time>
      </trkpt>
      <trkpt lat="45.15382" lon="5.75761">
        <ele>235.1</ele>
        <time>2011-05-11T09:26:56Z</time>
      </trkpt>
      <trkpt lat="45.1538" lon="5.75763">
        <ele>235.2</ele>
        <time>2011-05-11T09:26:57Z</time>
      </trkpt>
      <trkpt lat="45.15367" lon="5.75766">
        <ele>235.6</ele>
        <time>2011-05-11T09:27:03Z</time>
      </trkpt>
      <trkpt lat="45.15361" lon="5.75759">
        <ele>236.2</ele>
        <time>2011-05-11T09:27:07Z</time>
      </trkpt>
      <trkpt lat="45.15356" lon="5.7575">
        <ele>237.6</ele>
        <time>2011-05-11T09:27:11Z</time>
      </trkpt>
      <trkpt lat="45.15352" lon="5.75739">
        <ele>237.8</ele>
        <time>2011-05-11T09:27:15Z</time>
      </trkpt>
      <trkpt lat="45.15348" lon="5.75728">
        <ele>238.1</ele>
        <time>2011-05-11T09:27:19Z</time>
      </trkpt>
      <trkpt lat="45.15345" lon="5.75717">
        <ele>236.9</ele>
        <time>2011-05-11T09:27:23Z</time>
      </trkpt>
      <trkpt lat="45.15342" lon="5.75705">
        <ele>236.7</ele>
        <time>2011-05-11T09:27:27Z</time>
      </trkpt>
      <trkpt lat="45.15341" lon="5.75696">
        <ele>236.9</ele>
        <time>2011-05-11T09:27:30Z</time>
      </trkpt>
      <trkpt lat="45.1534" lon="5.75686">
        <ele>237.4</ele>
        <time>2011-05-11T09:27:33Z</time>
      </trkpt>
      <trkpt lat="45.15339" lon="5.75676">
        <ele>236.8</ele>
        <time>2011-05-11T09:27:36Z</time>
      </trkpt>
      <trkpt lat="45.15339" lon="5.75666">
        <ele>235.4</ele>
        <time>2011-05-11T09:27:39Z</time>
      </trkpt>
      <trkpt lat="45.15338" lon="5.75656">
        <ele>235</ele>
        <time>2011-05-11T09:27:42Z</time>
      </trkpt>
      <trkpt lat="45.15338" lon="5.75646">
        <ele>235.3</ele>
        <time>2011-05-11T09:27:45Z</time>
      </trkpt>
      <trkpt lat="45.15337" lon="5.75635">
        <ele>235.4</ele>
        <time>2011-05-11T09:27:48Z</time>
      </trkpt>
      <trkpt lat="45.15337" lon="5.75624">
        <ele>235</ele>
        <time>2011-05-11T09:27:51Z</time>
      </trkpt>
      <trkpt lat="45.15336" lon="5.75613">
        <ele>235.3</ele>
        <time>2011-05-11T09:27:54Z</time>
      </trkpt>
      <trkpt lat="45.15336" lon="5.75602">
        <ele>235.3</ele>
        <time>2011-05-11T09:27:57Z</time>
      </trkpt>
      <trkpt lat="45.15335" lon="5.75598">
        <ele>235.1</ele>
        <time>2011-05-11T09:27:58Z</time>
      </trkpt>
      <trkpt lat="45.15333" lon="5.7558">
        <ele>235.2</ele>
        <time>2011-05-11T09:28:03Z</time>
      </trkpt>
      <trkpt lat="45.15332" lon="5.75569">
        <ele>234.7</ele>
        <time>2011-05-11T09:28:06Z</time>
      </trkpt>
      <trkpt lat="45.1533" lon="5.75559">
        <ele>233.6</ele>
        <time>2011-05-11T09:28:09Z</time>
      </trkpt>
      <trkpt lat="45.15328" lon="5.75548">
        <ele>234.2</ele>
        <time>2011-05-11T09:28:12Z</time>
      </trkpt>
      <trkpt lat="45.15327" lon="5.75538">
        <ele>234.3</ele>
        <time>2011-05-11T09:28:15Z</time>
      </trkpt>
      <trkpt lat="45.15325" lon="5.75527">
        <ele>234.2</ele>
        <time>2011-05-11T09:28:18Z</time>
      </trkpt>
      <trkpt lat="45.15324" lon="5.75517">
        <ele>234.3</ele>
        <time>2011-05-11T09:28:21Z</time>
      </trkpt>
      <trkpt lat="45.15322" lon="5.75507">
        <ele>234.6</ele>
        <time>2011-05-11T09:28:24Z</time>
      </trkpt>
      <trkpt lat="45.1532" lon="5.75497">
        <ele>235</ele>
        <time>2011-05-11T09:28:27Z</time>
      </trkpt>
      <trkpt lat="45.15318" lon="5.75488">
        <ele>235</ele>
        <time>2011-05-11T09:28:30Z</time>
      </trkpt>
      <trkpt lat="45.15316" lon="5.75478">
        <ele>234.4</ele>
        <time>2011-05-11T09:28:33Z</time>
      </trkpt>
      <trkpt lat="45.15313" lon="5.75469">
        <ele>234.1</ele>
        <time>2011-05-11T09:28:36Z</time>
      </trkpt>
      <trkpt lat="45.1531" lon="5.7546">
        <ele>234.4</ele>
        <time>2011-05-11T09:28:39Z</time>
      </trkpt>
      <trkpt lat="45.15306" lon="5.75451">
        <ele>234.5</ele>
        <time>2011-05-11T09:28:42Z</time>
      </trkpt>
      <trkpt lat="45.15302" lon="5.75443">
        <ele>234.5</ele>
        <time>2011-05-11T09:28:45Z</time>
      </trkpt>
      <trkpt lat="45.15299" lon="5.75434">
        <ele>233.8</ele>
        <time>2011-05-11T09:28:48Z</time>
      </trkpt>
      <trkpt lat="45.15295" lon="5.75426">
        <ele>233.2</ele>
        <time>2011-05-11T09:28:51Z</time>
      </trkpt>
      <trkpt lat="45.15291" lon="5.75418">
        <ele>234.6</ele>
        <time>2011-05-11T09:28:54Z</time>
      </trkpt>
      <trkpt lat="45.15287" lon="5.7541">
        <ele>234.7</ele>
        <time>2011-05-11T09:28:57Z</time>
      </trkpt>
      <trkpt lat="45.15282" lon="5.75401">
        <ele>234.5</ele>
        <time>2011-05-11T09:29:00Z</time>
      </trkpt>
      <trkpt lat="45.15281" lon="5.75398">
        <ele>234.8</ele>
        <time>2011-05-11T09:29:01Z</time>
      </trkpt>
      <trkpt lat="45.15273" lon="5.75385">
        <ele>235</ele>
        <time>2011-05-11T09:29:06Z</time>
      </trkpt>
      <trkpt lat="45.15269" lon="5.75378">
        <ele>234.7</ele>
        <time>2011-05-11T09:29:09Z</time>
      </trkpt>
      <trkpt lat="45.15264" lon="5.75371">
        <ele>234.9</ele>
        <time>2011-05-11T09:29:12Z</time>
      </trkpt>
      <trkpt lat="45.15259" lon="5.75364">
        <ele>235.7</ele>
        <time>2011-05-11T09:29:15Z</time>
      </trkpt>
      <trkpt lat="45.15254" lon="5.75357">
        <ele>236.6</ele>
        <time>2011-05-11T09:29:18Z</time>
      </trkpt>
      <trkpt lat="45.15248" lon="5.7535">
        <ele>236.4</ele>
        <time>2011-05-11T09:29:21Z</time>
      </trkpt>
      <trkpt lat="45.15244" lon="5.75343">
        <ele>236</ele>
        <time>2011-05-11T09:29:24Z</time>
      </trkpt>
      <trkpt lat="45.15239" lon="5.75333">
        <ele>236.2</ele>
        <time>2011-05-11T09:29:28Z</time>
      </trkpt>
      <trkpt lat="45.15235" lon="5.75322">
        <ele>236.3</ele>
        <time>2011-05-11T09:29:32Z</time>
      </trkpt>
      <trkpt lat="45.15232" lon="5.7531">
        <ele>236.6</ele>
        <time>2011-05-11T09:29:36Z</time>
      </trkpt>
      <trkpt lat="45.1523" lon="5.75301">
        <ele>236.8</ele>
        <time>2011-05-11T09:29:39Z</time>
      </trkpt>
      <trkpt lat="45.15228" lon="5.75291">
        <ele>236.9</ele>
        <time>2011-05-11T09:29:42Z</time>
      </trkpt>
      <trkpt lat="45.15226" lon="5.75282">
        <ele>237.3</ele>
        <time>2011-05-11T09:29:45Z</time>
      </trkpt>
      <trkpt lat="45.15226" lon="5.75272">
        <ele>237.7</ele>
        <time>2011-05-11T09:29:48Z</time>
      </trkpt>
      <trkpt lat="45.15225" lon="5.75261">
        <ele>238.5</ele>
        <time>2011-05-11T09:29:51Z</time>
      </trkpt>
      <trkpt lat="45.15224" lon="5.75251">
        <ele>237.5</ele>
        <time>2011-05-11T09:29:54Z</time>
      </trkpt>
      <trkpt lat="45.15223" lon="5.75241">
        <ele>237.7</ele>
        <time>2011-05-11T09:29:57Z</time>
      </trkpt>
      <trkpt lat="45.15223" lon="5.75229">
        <ele>237.3</ele>
        <time>2011-05-11T09:30:01Z</time>
      </trkpt>
      <trkpt lat="45.15223" lon="5.75226">
        <ele>236.8</ele>
        <time>2011-05-11T09:30:02Z</time>
      </trkpt>
      <trkpt lat="45.15223" lon="5.75209">
        <ele>236.3</ele>
        <time>2011-05-11T09:30:07Z</time>
      </trkpt>
      <trkpt lat="45.15225" lon="5.75199">
        <ele>236.5</ele>
        <time>2011-05-11T09:30:10Z</time>
      </trkpt>
      <trkpt lat="45.15227" lon="5.7519">
        <ele>237.5</ele>
        <time>2011-05-11T09:30:13Z</time>
      </trkpt>
      <trkpt lat="45.1523" lon="5.7518">
        <ele>236.9</ele>
        <time>2011-05-11T09:30:16Z</time>
      </trkpt>
      <trkpt lat="45.15234" lon="5.75171">
        <ele>235.9</ele>
        <time>2011-05-11T09:30:19Z</time>
      </trkpt>
      <trkpt lat="45.15236" lon="5.75161">
        <ele>236.3</ele>
        <time>2011-05-11T09:30:22Z</time>
      </trkpt>
      <trkpt lat="45.15239" lon="5.75151">
        <ele>236</ele>
        <time>2011-05-11T09:30:25Z</time>
      </trkpt>
      <trkpt lat="45.15243" lon="5.75143">
        <ele>236.8</ele>
        <time>2011-05-11T09:30:28Z</time>
      </trkpt>
      <trkpt lat="45.15248" lon="5.75134">
        <ele>237.3</ele>
        <time>2011-05-11T09:30:31Z</time>
      </trkpt>
      <trkpt lat="45.15252" lon="5.75125">
        <ele>236.8</ele>
        <time>2011-05-11T09:30:34Z</time>
      </trkpt>
      <trkpt lat="45.15256" lon="5.75116">
        <ele>236.7</ele>
        <time>2011-05-11T09:30:37Z</time>
      </trkpt>
      <trkpt lat="45.1526" lon="5.75107">
        <ele>237</ele>
        <time>2011-05-11T09:30:40Z</time>
      </trkpt>
      <trkpt lat="45.15264" lon="5.75099">
        <ele>236.9</ele>
        <time>2011-05-11T09:30:43Z</time>
      </trkpt>
      <trkpt lat="45.15259" lon="5.75089">
        <ele>237.5</ele>
        <time>2011-05-11T09:30:48Z</time>
      </trkpt>
      <trkpt lat="45.15251" lon="5.75084">
        <ele>237.6</ele>
        <time>2011-05-11T09:30:52Z</time>
      </trkpt>
      <trkpt lat="45.15243" lon="5.75082">
        <ele>237.5</ele>
        <time>2011-05-11T09:30:56Z</time>
      </trkpt>
      <trkpt lat="45.15234" lon="5.75079">
        <ele>237.9</ele>
        <time>2011-05-11T09:31:00Z</time>
      </trkpt>
      <trkpt lat="45.15226" lon="5.75077">
        <ele>237.9</ele>
        <time>2011-05-11T09:31:04Z</time>
      </trkpt>
      <trkpt lat="45.15224" lon="5.75076">
        <ele>237.9</ele>
        <time>2011-05-11T09:31:05Z</time>
      </trkpt>
      <trkpt lat="45.15211" lon="5.7507">
        <ele>237.6</ele>
        <time>2011-05-11T09:31:11Z</time>
      </trkpt>
      <trkpt lat="45.15204" lon="5.75065">
        <ele>237.9</ele>
        <time>2011-05-11T09:31:15Z</time>
      </trkpt>
      <trkpt lat="45.15195" lon="5.75061">
        <ele>238.7</ele>
        <time>2011-05-11T09:31:19Z</time>
      </trkpt>
      <trkpt lat="45.15187" lon="5.75059">
        <ele>239.2</ele>
        <time>2011-05-11T09:31:23Z</time>
      </trkpt>
      <trkpt lat="45.15179" lon="5.7506">
        <ele>238.1</ele>
        <time>2011-05-11T09:31:27Z</time>
      </trkpt>
      <trkpt lat="45.15171" lon="5.75064">
        <ele>239.1</ele>
        <time>2011-05-11T09:31:31Z</time>
      </trkpt>
      <trkpt lat="45.15163" lon="5.75069">
        <ele>239.8</ele>
        <time>2011-05-11T09:31:35Z</time>
      </trkpt>
      <trkpt lat="45.15156" lon="5.75075">
        <ele>240.1</ele>
        <time>2011-05-11T09:31:39Z</time>
      </trkpt>
      <trkpt lat="45.1515" lon="5.75081">
        <ele>240.7</ele>
        <time>2011-05-11T09:31:43Z</time>
      </trkpt>
      <trkpt lat="45.15144" lon="5.75089">
        <ele>242.5</ele>
        <time>2011-05-11T09:31:48Z</time>
      </trkpt>
      <trkpt lat="45.15137" lon="5.75096">
        <ele>242.4</ele>
        <time>2011-05-11T09:31:53Z</time>
      </trkpt>
      <trkpt lat="45.1513" lon="5.75103">
        <ele>242.9</ele>
        <time>2011-05-11T09:31:58Z</time>
      </trkpt>
      <trkpt lat="45.15123" lon="5.75111">
        <ele>244.6</ele>
        <time>2011-05-11T09:32:03Z</time>
      </trkpt>
      <trkpt lat="45.15116" lon="5.75117">
        <ele>245.9</ele>
        <time>2011-05-11T09:32:08Z</time>
      </trkpt>
      <trkpt lat="45.15115" lon="5.75119">
        <ele>246.5</ele>
        <time>2011-05-11T09:32:09Z</time>
      </trkpt>
      <trkpt lat="45.15106" lon="5.75133">
        <ele>248.1</ele>
        <time>2011-05-11T09:32:16Z</time>
      </trkpt>
      <trkpt lat="45.151" lon="5.75142">
        <ele>249.5</ele>
        <time>2011-05-11T09:32:20Z</time>
      </trkpt>
      <trkpt lat="45.15095" lon="5.75151">
        <ele>250.4</ele>
        <time>2011-05-11T09:32:24Z</time>
      </trkpt>
      <trkpt lat="45.15089" lon="5.75159">
        <ele>251.7</ele>
        <time>2011-05-11T09:32:28Z</time>
      </trkpt>
      <trkpt lat="45.15084" lon="5.75167">
        <ele>251.3</ele>
        <time>2011-05-11T09:32:32Z</time>
      </trkpt>
      <trkpt lat="45.15078" lon="5.75175">
        <ele>252.4</ele>
        <time>2011-05-11T09:32:36Z</time>
      </trkpt>
      <trkpt lat="45.15073" lon="5.75183">
        <ele>254.3</ele>
        <time>2011-05-11T09:32:40Z</time>
      </trkpt>
      <trkpt lat="45.15068" lon="5.75192">
        <ele>254.7</ele>
        <time>2011-05-11T09:32:44Z</time>
      </trkpt>
      <trkpt lat="45.15064" lon="5.752">
        <ele>255.6</ele>
        <time>2011-05-11T09:32:48Z</time>
      </trkpt>
      <trkpt lat="45.1506" lon="5.75209">
        <ele>257</ele>
        <time>2011-05-11T09:32:52Z</time>
      </trkpt>
      <trkpt lat="45.15057" lon="5.75219">
        <ele>257.6</ele>
        <time>2011-05-11T09:32:56Z</time>
      </trkpt>
      <trkpt lat="45.15054" lon="5.75229">
        <ele>258.4</ele>
        <time>2011-05-11T09:33:00Z</time>
      </trkpt>
      <trkpt lat="45.15052" lon="5.7524">
        <ele>259</ele>
        <time>2011-05-11T09:33:04Z</time>
      </trkpt>
      <trkpt lat="45.15049" lon="5.7525">
        <ele>260.4</ele>
        <time>2011-05-11T09:33:08Z</time>
      </trkpt>
      <trkpt lat="45.15047" lon="5.7526">
        <ele>261.6</ele>
        <time>2011-05-11T09:33:12Z</time>
      </trkpt>
      <trkpt lat="45.15046" lon="5.75263">
        <ele>261.7</ele>
        <time>2011-05-11T09:33:13Z</time>
      </trkpt>
      <trkpt lat="45.15042" lon="5.7528">
        <ele>262.5</ele>
        <time>2011-05-11T09:33:20Z</time>
      </trkpt>
      <trkpt lat="45.15042" lon="5.75293">
        <ele>264.3</ele>
        <time>2011-05-11T09:33:25Z</time>
      </trkpt>
      <trkpt lat="45.15042" lon="5.75303">
        <ele>264.5</ele>
        <time>2011-05-11T09:33:29Z</time>
      </trkpt>
      <trkpt lat="45.15041" lon="5.75315">
        <ele>266</ele>
        <time>2011-05-11T09:33:34Z</time>
      </trkpt>
      <trkpt lat="45.15041" lon="5.75328">
        <ele>267.1</ele>
        <time>2011-05-11T09:33:39Z</time>
      </trkpt>
      <trkpt lat="45.15041" lon="5.75338">
        <ele>267.8</ele>
        <time>2011-05-11T09:33:43Z</time>
      </trkpt>
      <trkpt lat="45.15041" lon="5.75349">
        <ele>268.7</ele>
        <time>2011-05-11T09:33:47Z</time>
      </trkpt>
      <trkpt lat="45.15042" lon="5.7536">
        <ele>269.1</ele>
        <time>2011-05-11T09:33:51Z</time>
      </trkpt>
      <trkpt lat="45.15042" lon="5.75371">
        <ele>270.1</ele>
        <time>2011-05-11T09:33:55Z</time>
      </trkpt>
      <trkpt lat="45.15041" lon="5.75382">
        <ele>270</ele>
        <time>2011-05-11T09:33:59Z</time>
      </trkpt>
      <trkpt lat="45.15041" lon="5.75393">
        <ele>270.9</ele>
        <time>2011-05-11T09:34:03Z</time>
      </trkpt>
      <trkpt lat="45.15042" lon="5.75404">
        <ele>272.2</ele>
        <time>2011-05-11T09:34:07Z</time>
      </trkpt>
      <trkpt lat="45.15044" lon="5.75414">
        <ele>273.4</ele>
        <time>2011-05-11T09:34:11Z</time>
      </trkpt>
      <trkpt lat="45.15047" lon="5.75423">
        <ele>273.7</ele>
        <time>2011-05-11T09:34:15Z</time>
      </trkpt>
      <trkpt lat="45.15048" lon="5.75425">
        <ele>274.3</ele>
        <time>2011-05-11T09:34:16Z</time>
      </trkpt>
      <trkpt lat="45.15056" lon="5.75443">
        <ele>277.2</ele>
        <time>2011-05-11T09:34:25Z</time>
      </trkpt>
      <trkpt lat="45.1506" lon="5.75453">
        <ele>278.2</ele>
        <time>2011-05-11T09:34:30Z</time>
      </trkpt>
      <trkpt lat="45.15065" lon="5.75462">
        <ele>279.2</ele>
        <time>2011-05-11T09:34:35Z</time>
      </trkpt>
      <trkpt lat="45.15068" lon="5.75472">
        <ele>279.2</ele>
        <time>2011-05-11T09:34:40Z</time>
      </trkpt>
      <trkpt lat="45.1507" lon="5.75482">
        <ele>281.1</ele>
        <time>2011-05-11T09:34:45Z</time>
      </trkpt>
      <trkpt lat="45.15072" lon="5.75494">
        <ele>284.1</ele>
        <time>2011-05-11T09:34:51Z</time>
      </trkpt>
      <trkpt lat="45.15074" lon="5.75506">
        <ele>285.9</ele>
        <time>2011-05-11T09:34:56Z</time>
      </trkpt>
      <trkpt lat="45.15076" lon="5.75516">
        <ele>285.9</ele>
        <time>2011-05-11T09:35:00Z</time>
      </trkpt>
      <trkpt lat="45.15078" lon="5.75528">
        <ele>286.2</ele>
        <time>2011-05-11T09:35:05Z</time>
      </trkpt>
      <trkpt lat="45.15081" lon="5.7554">
        <ele>287.5</ele>
        <time>2011-05-11T09:35:10Z</time>
      </trkpt>
      <trkpt lat="45.15083" lon="5.7555">
        <ele>288.2</ele>
        <time>2011-05-11T09:35:15Z</time>
      </trkpt>
      <trkpt lat="45.15085" lon="5.7556">
        <ele>290</ele>
        <time>2011-05-11T09:35:20Z</time>
      </trkpt>
      <trkpt lat="45.15085" lon="5.75562">
        <ele>290.2</ele>
        <time>2011-05-11T09:35:21Z</time>
      </trkpt>
      <trkpt lat="45.15089" lon="5.75582">
        <ele>292.7</ele>
        <time>2011-05-11T09:35:32Z</time>
      </trkpt>
      <trkpt lat="45.15091" lon="5.75594">
        <ele>292.3</ele>
        <time>2011-05-11T09:35:38Z</time>
      </trkpt>
      <trkpt lat="45.15093" lon="5.75605">
        <ele>292.7</ele>
        <time>2011-05-11T09:35:43Z</time>
      </trkpt>
      <trkpt lat="45.15095" lon="5.75615">
        <ele>293.3</ele>
        <time>2011-05-11T09:35:48Z</time>
      </trkpt>
      <trkpt lat="45.15097" lon="5.75628">
        <ele>294.1</ele>
        <time>2011-05-11T09:35:54Z</time>
      </trkpt>
      <trkpt lat="45.151" lon="5.7564">
        <ele>294.4</ele>
        <time>2011-05-11T09:35:59Z</time>
      </trkpt>
      <trkpt lat="45.15102" lon="5.7565">
        <ele>295.1</ele>
        <time>2011-05-11T09:36:03Z</time>
      </trkpt>
      <trkpt lat="45.15104" lon="5.7566">
        <ele>295.5</ele>
        <time>2011-05-11T09:36:07Z</time>
      </trkpt>
      <trkpt lat="45.15107" lon="5.7567">
        <ele>295.9</ele>
        <time>2011-05-11T09:36:11Z</time>
      </trkpt>
      <trkpt lat="45.15109" lon="5.75681">
        <ele>295.4</ele>
        <time>2011-05-11T09:36:15Z</time>
      </trkpt>
      <trkpt lat="45.15112" lon="5.75689">
        <ele>295.6</ele>
        <time>2011-05-11T09:36:17Z</time>
      </trkpt>
      <trkpt lat="45.15117" lon="5.75699">
        <ele>295.1</ele>
        <time>2011-05-11T09:36:20Z</time>
      </trkpt>
      <trkpt lat="45.15121" lon="5.75709">
        <ele>294.4</ele>
        <time>2011-05-11T09:36:23Z</time>
      </trkpt>
      <trkpt lat="45.15123" lon="5.75712">
        <ele>294.3</ele>
        <time>2011-05-11T09:36:24Z</time>
      </trkpt>
      <trkpt lat="45.15129" lon="5.75726">
        <ele>293.1</ele>
        <time>2011-05-11T09:36:29Z</time>
      </trkpt>
      <trkpt lat="45.15132" lon="5.75736">
        <ele>292.8</ele>
        <time>2011-05-11T09:36:32Z</time>
      </trkpt>
      <trkpt lat="45.15136" lon="5.75746">
        <ele>292.3</ele>
        <time>2011-05-11T09:36:35Z</time>
      </trkpt>
      <trkpt lat="45.1514" lon="5.75756">
        <ele>291.4</ele>
        <time>2011-05-11T09:36:38Z</time>
      </trkpt>
      <trkpt lat="45.15144" lon="5.75765">
        <ele>291</ele>
        <time>2011-05-11T09:36:41Z</time>
      </trkpt>
      <trkpt lat="45.15148" lon="5.75775">
        <ele>291.3</ele>
        <time>2011-05-11T09:36:44Z</time>
      </trkpt>
      <trkpt lat="45.15152" lon="5.75785">
        <ele>291.2</ele>
        <time>2011-05-11T09:36:47Z</time>
      </trkpt>
      <trkpt lat="45.15154" lon="5.75797">
        <ele>291</ele>
        <time>2011-05-11T09:36:51Z</time>
      </trkpt>
      <trkpt lat="45.15157" lon="5.75808">
        <ele>291.5</ele>
        <time>2011-05-11T09:36:55Z</time>
      </trkpt>
      <trkpt lat="45.1516" lon="5.75819">
        <ele>292</ele>
        <time>2011-05-11T09:36:59Z</time>
      </trkpt>
      <trkpt lat="45.15163" lon="5.75829">
        <ele>291.9</ele>
        <time>2011-05-11T09:37:03Z</time>
      </trkpt>
      <trkpt lat="45.15167" lon="5.75839">
        <ele>289.7</ele>
        <time>2011-05-11T09:37:07Z</time>
      </trkpt>
      <trkpt lat="45.1517" lon="5.7585">
        <ele>288.9</ele>
        <time>2011-05-11T09:37:12Z</time>
      </trkpt>
      <trkpt lat="45.1517" lon="5.75862">
        <ele>289.2</ele>
        <time>2011-05-11T09:37:17Z</time>
      </trkpt>
      <trkpt lat="45.15174" lon="5.75872">
        <ele>289.8</ele>
        <time>2011-05-11T09:37:21Z</time>
      </trkpt>
      <trkpt lat="45.15179" lon="5.75881">
        <ele>289.5</ele>
        <time>2011-05-11T09:37:24Z</time>
      </trkpt>
      <trkpt lat="45.1518" lon="5.75884">
        <ele>289.4</ele>
        <time>2011-05-11T09:37:25Z</time>
      </trkpt>
      <trkpt lat="45.15183" lon="5.75901">
        <ele>289.1</ele>
        <time>2011-05-11T09:37:31Z</time>
      </trkpt>
      <trkpt lat="45.15183" lon="5.75911">
        <ele>289.3</ele>
        <time>2011-05-11T09:37:34Z</time>
      </trkpt>
      <trkpt lat="45.15184" lon="5.75921">
        <ele>289.1</ele>
        <time>2011-05-11T09:37:37Z</time>
      </trkpt>
      <trkpt lat="45.15187" lon="5.7593">
        <ele>289</ele>
        <time>2011-05-11T09:37:40Z</time>
      </trkpt>
      <trkpt lat="45.15186" lon="5.75943">
        <ele>290</ele>
        <time>2011-05-11T09:37:44Z</time>
      </trkpt>
      <trkpt lat="45.15186" lon="5.75955">
        <ele>291</ele>
        <time>2011-05-11T09:37:49Z</time>
      </trkpt>
      <trkpt lat="45.1519" lon="5.75963">
        <ele>292</ele>
        <time>2011-05-11T09:37:52Z</time>
      </trkpt>
      <trkpt lat="45.15195" lon="5.75973">
        <ele>291.8</ele>
        <time>2011-05-11T09:37:56Z</time>
      </trkpt>
      <trkpt lat="45.15199" lon="5.75983">
        <ele>292.7</ele>
        <time>2011-05-11T09:38:00Z</time>
      </trkpt>
      <trkpt lat="45.15204" lon="5.75993">
        <ele>293.1</ele>
        <time>2011-05-11T09:38:05Z</time>
      </trkpt>
      <trkpt lat="45.15208" lon="5.76001">
        <ele>293.5</ele>
        <time>2011-05-11T09:38:08Z</time>
      </trkpt>
      <trkpt lat="45.15214" lon="5.7601">
        <ele>293.8</ele>
        <time>2011-05-11T09:38:12Z</time>
      </trkpt>
      <trkpt lat="45.15219" lon="5.76019">
        <ele>294.3</ele>
        <time>2011-05-11T09:38:16Z</time>
      </trkpt>
      <trkpt lat="45.15225" lon="5.76028">
        <ele>295.8</ele>
        <time>2011-05-11T09:38:20Z</time>
      </trkpt>
      <trkpt lat="45.1523" lon="5.76038">
        <ele>295.4</ele>
        <time>2011-05-11T09:38:24Z</time>
      </trkpt>
      <trkpt lat="45.15236" lon="5.76046">
        <ele>295.1</ele>
        <time>2011-05-11T09:38:28Z</time>
      </trkpt>
      <trkpt lat="45.15237" lon="5.76048">
        <ele>295.3</ele>
        <time>2011-05-11T09:38:29Z</time>
      </trkpt>
      <trkpt lat="45.15246" lon="5.76062">
        <ele>295.1</ele>
        <time>2011-05-11T09:38:35Z</time>
      </trkpt>
      <trkpt lat="45.15251" lon="5.76069">
        <ele>294.8</ele>
        <time>2011-05-11T09:38:38Z</time>
      </trkpt>
      <trkpt lat="45.15256" lon="5.76078">
        <ele>293.8</ele>
        <time>2011-05-11T09:38:42Z</time>
      </trkpt>
      <trkpt lat="45.15262" lon="5.76085">
        <ele>292.9</ele>
        <time>2011-05-11T09:38:45Z</time>
      </trkpt>
      <trkpt lat="45.15268" lon="5.76092">
        <ele>291.8</ele>
        <time>2011-05-11T09:38:48Z</time>
      </trkpt>
      <trkpt lat="45.15272" lon="5.76101">
        <ele>290.3</ele>
        <time>2011-05-11T09:38:51Z</time>
      </trkpt>
      <trkpt lat="45.15277" lon="5.76109">
        <ele>289.9</ele>
        <time>2011-05-11T09:38:54Z</time>
      </trkpt>
      <trkpt lat="45.15282" lon="5.76117">
        <ele>288.9</ele>
        <time>2011-05-11T09:38:57Z</time>
      </trkpt>
      <trkpt lat="45.15288" lon="5.76125">
        <ele>287.7</ele>
        <time>2011-05-11T09:39:00Z</time>
      </trkpt>
      <trkpt lat="45.15294" lon="5.76133">
        <ele>286.4</ele>
        <time>2011-05-11T09:39:03Z</time>
      </trkpt>
      <trkpt lat="45.15301" lon="5.76141">
        <ele>284.6</ele>
        <time>2011-05-11T09:39:06Z</time>
      </trkpt>
      <trkpt lat="45.15308" lon="5.76147">
        <ele>283.7</ele>
        <time>2011-05-11T09:39:09Z</time>
      </trkpt>
      <trkpt lat="45.15316" lon="5.76152">
        <ele>282.4</ele>
        <time>2011-05-11T09:39:12Z</time>
      </trkpt>
      <trkpt lat="45.15324" lon="5.76157">
        <ele>281.1</ele>
        <time>2011-05-11T09:39:15Z</time>
      </trkpt>
      <trkpt lat="45.1533" lon="5.7616">
        <ele>280.1</ele>
        <time>2011-05-11T09:39:17Z</time>
      </trkpt>
      <trkpt lat="45.15338" lon="5.76163">
        <ele>278.6</ele>
        <time>2011-05-11T09:39:20Z</time>
      </trkpt>
      <trkpt lat="45.15344" lon="5.76167">
        <ele>277.8</ele>
        <time>2011-05-11T09:39:22Z</time>
      </trkpt>
      <trkpt lat="45.1535" lon="5.7617">
        <ele>276.9</ele>
        <time>2011-05-11T09:39:24Z</time>
      </trkpt>
      <trkpt lat="45.15356" lon="5.76174">
        <ele>276.4</ele>
        <time>2011-05-11T09:39:26Z</time>
      </trkpt>
      <trkpt lat="45.15363" lon="5.76179">
        <ele>275.7</ele>
        <time>2011-05-11T09:39:29Z</time>
      </trkpt>
      <trkpt lat="45.15365" lon="5.76181">
        <ele>275.4</ele>
        <time>2011-05-11T09:39:30Z</time>
      </trkpt>
      <trkpt lat="45.15376" lon="5.7618">
        <ele>274.1</ele>
        <time>2011-05-11T09:39:38Z</time>
      </trkpt>
      <trkpt lat="45.15383" lon="5.76177">
        <ele>272</ele>
        <time>2011-05-11T09:39:41Z</time>
      </trkpt>
      <trkpt lat="45.15391" lon="5.76175">
        <ele>270.6</ele>
        <time>2011-05-11T09:39:44Z</time>
      </trkpt>
      <trkpt lat="45.15397" lon="5.76171">
        <ele>268.6</ele>
        <time>2011-05-11T09:39:47Z</time>
      </trkpt>
      <trkpt lat="45.15405" lon="5.76166">
        <ele>267.6</ele>
        <time>2011-05-11T09:39:50Z</time>
      </trkpt>
      <trkpt lat="45.15412" lon="5.76161">
        <ele>266.5</ele>
        <time>2011-05-11T09:39:53Z</time>
      </trkpt>
      <trkpt lat="45.1542" lon="5.76157">
        <ele>264.7</ele>
        <time>2011-05-11T09:39:56Z</time>
      </trkpt>
      <trkpt lat="45.15428" lon="5.76152">
        <ele>263.6</ele>
        <time>2011-05-11T09:39:59Z</time>
      </trkpt>
      <trkpt lat="45.15435" lon="5.76149">
        <ele>262.6</ele>
        <time>2011-05-11T09:40:02Z</time>
      </trkpt>
      <trkpt lat="45.15442" lon="5.76145">
        <ele>261.5</ele>
        <time>2011-05-11T09:40:05Z</time>
      </trkpt>
      <trkpt lat="45.15448" lon="5.76138">
        <ele>260.3</ele>
        <time>2011-05-11T09:40:08Z</time>
      </trkpt>
      <trkpt lat="45.15455" lon="5.76133">
        <ele>259.1</ele>
        <time>2011-05-11T09:40:11Z</time>
      </trkpt>
      <trkpt lat="45.15461" lon="5.76128">
        <ele>257.5</ele>
        <time>2011-05-11T09:40:14Z</time>
      </trkpt>
      <trkpt lat="45.15468" lon="5.76121">
        <ele>255.8</ele>
        <time>2011-05-11T09:40:17Z</time>
      </trkpt>
      <trkpt lat="45.15465" lon="5.76109">
        <ele>253.7</ele>
        <time>2011-05-11T09:40:21Z</time>
      </trkpt>
      <trkpt lat="45.15461" lon="5.76098">
        <ele>253.6</ele>
        <time>2011-05-11T09:40:25Z</time>
      </trkpt>
      <trkpt lat="45.15458" lon="5.76089">
        <ele>253</ele>
        <time>2011-05-11T09:40:28Z</time>
      </trkpt>
      <trkpt lat="45.15455" lon="5.7608">
        <ele>252.8</ele>
        <time>2011-05-11T09:40:32Z</time>
      </trkpt>
      <trkpt lat="45.15454" lon="5.76077">
        <ele>253.2</ele>
        <time>2011-05-11T09:40:33Z</time>
      </trkpt>
      <trkpt lat="45.15449" lon="5.76057">
        <ele>254.7</ele>
        <time>2011-05-11T09:40:40Z</time>
      </trkpt>
      <trkpt lat="45.15445" lon="5.76046">
        <ele>255.4</ele>
        <time>2011-05-11T09:40:44Z</time>
      </trkpt>
      <trkpt lat="45.15442" lon="5.76035">
        <ele>255.4</ele>
        <time>2011-05-11T09:40:48Z</time>
      </trkpt>
      <trkpt lat="45.15438" lon="5.76024">
        <ele>255.3</ele>
        <time>2011-05-11T09:40:52Z</time>
      </trkpt>
      <trkpt lat="45.15435" lon="5.76012">
        <ele>256.3</ele>
        <time>2011-05-11T09:40:56Z</time>
      </trkpt>
      <trkpt lat="45.15433" lon="5.76001">
        <ele>257.5</ele>
        <time>2011-05-11T09:41:00Z</time>
      </trkpt>
      <trkpt lat="45.15431" lon="5.75988">
        <ele>257.4</ele>
        <time>2011-05-11T09:41:05Z</time>
      </trkpt>
      <trkpt lat="45.15432" lon="5.75978">
        <ele>256.2</ele>
        <time>2011-05-11T09:41:09Z</time>
      </trkpt>
      <trkpt lat="45.15431" lon="5.75968">
        <ele>254.3</ele>
        <time>2011-05-11T09:41:12Z</time>
      </trkpt>
      <trkpt lat="45.15431" lon="5.75956">
        <ele>253.4</ele>
        <time>2011-05-11T09:41:16Z</time>
      </trkpt>
      <trkpt lat="45.15429" lon="5.75945">
        <ele>253.3</ele>
        <time>2011-05-11T09:41:20Z</time>
      </trkpt>
      <trkpt lat="45.15427" lon="5.75935">
        <ele>252.7</ele>
        <time>2011-05-11T09:41:23Z</time>
      </trkpt>
      <trkpt lat="45.15424" lon="5.75926">
        <ele>252.2</ele>
        <time>2011-05-11T09:41:26Z</time>
      </trkpt>
      <trkpt lat="45.15422" lon="5.75917">
        <ele>251.3</ele>
        <time>2011-05-11T09:41:29Z</time>
      </trkpt>
      <trkpt lat="45.15418" lon="5.75908">
        <ele>250.5</ele>
        <time>2011-05-11T09:41:32Z</time>
      </trkpt>
      <trkpt lat="45.15415" lon="5.75899">
        <ele>249.7</ele>
        <time>2011-05-11T09:41:35Z</time>
      </trkpt>
      <trkpt lat="45.15414" lon="5.75896">
        <ele>249.5</ele>
        <time>2011-05-11T09:41:36Z</time>
      </trkpt>
      <trkpt lat="45.15406" lon="5.7588">
        <ele>246.6</ele>
        <time>2011-05-11T09:41:43Z</time>
      </trkpt>
      <trkpt lat="45.154" lon="5.75875">
        <ele>245.8</ele>
        <time>2011-05-11T09:41:46Z</time>
      </trkpt>
      <trkpt lat="45.15394" lon="5.75867">
        <ele>245.8</ele>
        <time>2011-05-11T09:41:50Z</time>
      </trkpt>
      <trkpt lat="45.15389" lon="5.75856">
        <ele>245.3</ele>
        <time>2011-05-11T09:41:54Z</time>
      </trkpt>
      <trkpt lat="45.15385" lon="5.75849">
        <ele>244.8</ele>
        <time>2011-05-11T09:41:57Z</time>
      </trkpt>
      <trkpt lat="45.15381" lon="5.75841">
        <ele>245.6</ele>
        <time>2011-05-11T09:42:00Z</time>
      </trkpt>
      <trkpt lat="45.15378" lon="5.75832">
        <ele>245.5</ele>
        <time>2011-05-11T09:42:03Z</time>
      </trkpt>
      <trkpt lat="45.15376" lon="5.75822">
        <ele>244.5</ele>
        <time>2011-05-11T09:42:06Z</time>
      </trkpt>
      <trkpt lat="45.15374" lon="5.75813">
        <ele>242.9</ele>
        <time>2011-05-11T09:42:09Z</time>
      </trkpt>
      <trkpt lat="45.15372" lon="5.75803">
        <ele>242.3</ele>
        <time>2011-05-11T09:42:12Z</time>
      </trkpt>
      <trkpt lat="45.1537" lon="5.75793">
        <ele>242</ele>
        <time>2011-05-11T09:42:15Z</time>
      </trkpt>
      <trkpt lat="45.15367" lon="5.75783">
        <ele>241.2</ele>
        <time>2011-05-11T09:42:18Z</time>
      </trkpt>
      <trkpt lat="45.15367" lon="5.7577">
        <ele>240.3</ele>
        <time>2011-05-11T09:42:22Z</time>
      </trkpt>
      <trkpt lat="45.15375" lon="5.75775">
        <ele>238.1</ele>
        <time>2011-05-11T09:42:28Z</time>
      </trkpt>
      <trkpt lat="45.15382" lon="5.7578">
        <ele>237.8</ele>
        <time>2011-05-11T09:42:34Z</time>
      </trkpt>
      <trkpt lat="45.15388" lon="5.75771">
        <ele>236.8</ele>
        <time>2011-05-11T09:42:38Z</time>
      </trkpt>
      <trkpt lat="45.15389" lon="5.75769">
        <ele>236.6</ele>
        <time>2011-05-11T09:42:39Z</time>
      </trkpt>
      <trkpt lat="45.15399" lon="5.75755">
        <ele>236.3</ele>
        <time>2011-05-11T09:42:45Z</time>
      </trkpt>
      <trkpt lat="45.15403" lon="5.75747">
        <ele>236.5</ele>
        <time>2011-05-11T09:42:48Z</time>
      </trkpt>
      <trkpt lat="45.15409" lon="5.7574">
        <ele>235.9</ele>
        <time>2011-05-11T09:42:51Z</time>
      </trkpt>
      <trkpt lat="45.15414" lon="5.75733">
        <ele>235.9</ele>
        <time>2011-05-11T09:42:54Z</time>
      </trkpt>
      <trkpt lat="45.1542" lon="5.75726">
        <ele>236.1</ele>
        <time>2011-05-11T09:42:57Z</time>
      </trkpt>
      <trkpt lat="45.15426" lon="5.75721">
        <ele>236</ele>
        <time>2011-05-11T09:43:00Z</time>
      </trkpt>
      <trkpt lat="45.15433" lon="5.75719">
        <ele>235.4</ele>
        <time>2011-05-11T09:43:03Z</time>
      </trkpt>
      <trkpt lat="45.15441" lon="5.75719">
        <ele>235.2</ele>
        <time>2011-05-11T09:43:06Z</time>
      </trkpt>
      <trkpt lat="45.15448" lon="5.7572">
        <ele>235.5</ele>
        <time>2011-05-11T09:43:09Z</time>
      </trkpt>
      <trkpt lat="45.15456" lon="5.75721">
        <ele>235.5</ele>
        <time>2011-05-11T09:43:12Z</time>
      </trkpt>
      <trkpt lat="45.15464" lon="5.75723">
        <ele>234.9</ele>
        <time>2011-05-11T09:43:15Z</time>
      </trkpt>
      <trkpt lat="45.15471" lon="5.75724">
        <ele>234.1</ele>
        <time>2011-05-11T09:43:18Z</time>
      </trkpt>
      <trkpt lat="45.15479" lon="5.75726">
        <ele>233.4</ele>
        <time>2011-05-11T09:43:21Z</time>
      </trkpt>
      <trkpt lat="45.15487" lon="5.75727">
        <ele>233.5</ele>
        <time>2011-05-11T09:43:24Z</time>
      </trkpt>
      <trkpt lat="45.15495" lon="5.75728">
        <ele>232.3</ele>
        <time>2011-05-11T09:43:27Z</time>
      </trkpt>
      <trkpt lat="45.15502" lon="5.75729">
        <ele>232.8</ele>
        <time>2011-05-11T09:43:30Z</time>
      </trkpt>
      <trkpt lat="45.1551" lon="5.7573">
        <ele>233.3</ele>
        <time>2011-05-11T09:43:33Z</time>
      </trkpt>
      <trkpt lat="45.15517" lon="5.75731">
        <ele>232.9</ele>
        <time>2011-05-11T09:43:36Z</time>
      </trkpt>
      <trkpt lat="45.15525" lon="5.75732">
        <ele>233.1</ele>
        <time>2011-05-11T09:43:39Z</time>
      </trkpt>
      <trkpt lat="45.15528" lon="5.75732">
        <ele>232.8</ele>
        <time>2011-05-11T09:43:40Z</time>
      </trkpt>
      <trkpt lat="45.1554" lon="5.75735">
        <ele>232.6</ele>
        <time>2011-05-11T09:43:45Z</time>
      </trkpt>
      <trkpt lat="45.15548" lon="5.75736">
        <ele>232.7</ele>
        <time>2011-05-11T09:43:48Z</time>
      </trkpt>
      <trkpt lat="45.15555" lon="5.75738">
        <ele>232.9</ele>
        <time>2011-05-11T09:43:51Z</time>
      </trkpt>
      <trkpt lat="45.15563" lon="5.75738">
        <ele>233</ele>
        <time>2011-05-11T09:43:54Z</time>
      </trkpt>
      <trkpt lat="45.15569" lon="5.75733">
        <ele>232.6</ele>
        <time>2011-05-11T09:43:57Z</time>
      </trkpt>
      <trkpt lat="45.15574" lon="5.75727">
        <ele>232.6</ele>
        <time>2011-05-11T09:44:00Z</time>
      </trkpt>
      <trkpt lat="45.1558" lon="5.7572">
        <ele>232.4</ele>
        <time>2011-05-11T09:44:03Z</time>
      </trkpt>
      <trkpt lat="45.15586" lon="5.75715">
        <ele>232</ele>
        <time>2011-05-11T09:44:06Z</time>
      </trkpt>
      <trkpt lat="45.15593" lon="5.75708">
        <ele>232.5</ele>
        <time>2011-05-11T09:44:10Z</time>
      </trkpt>
      <trkpt lat="45.15598" lon="5.75701">
        <ele>232.7</ele>
        <time>2011-05-11T09:44:13Z</time>
      </trkpt>
      <trkpt lat="45.15604" lon="5.75694">
        <ele>232.2</ele>
        <time>2011-05-11T09:44:16Z</time>
      </trkpt>
      <trkpt lat="45.15609" lon="5.75688">
        <ele>232.2</ele>
        <time>2011-05-11T09:44:19Z</time>
      </trkpt>
      <trkpt lat="45.15615" lon="5.75681">
        <ele>232.8</ele>
        <time>2011-05-11T09:44:22Z</time>
      </trkpt>
      <trkpt lat="45.15621" lon="5.75674">
        <ele>233.1</ele>
        <time>2011-05-11T09:44:25Z</time>
      </trkpt>
      <trkpt lat="45.15626" lon="5.75667">
        <ele>233.3</ele>
        <time>2011-05-11T09:44:28Z</time>
      </trkpt>
      <trkpt lat="45.15632" lon="5.75661">
        <ele>232.9</ele>
        <time>2011-05-11T09:44:31Z</time>
      </trkpt>
      <trkpt lat="45.15638" lon="5.75654">
        <ele>232.7</ele>
        <time>2011-05-11T09:44:34Z</time>
      </trkpt>
      <trkpt lat="45.15644" lon="5.75646">
        <ele>232.7</ele>
        <time>2011-05-11T09:44:37Z</time>
      </trkpt>
      <trkpt lat="45.1565" lon="5.75639">
        <ele>233.4</ele>
        <time>2011-05-11T09:44:40Z</time>
      </trkpt>
      <trkpt lat="45.15651" lon="5.75637">
        <ele>232.8</ele>
        <time>2011-05-11T09:44:41Z</time>
      </trkpt>
      <trkpt lat="45.15659" lon="5.75622">
        <ele>231.2</ele>
        <time>2011-05-11T09:44:46Z</time>
      </trkpt>
      <trkpt lat="45.15663" lon="5.75613">
        <ele>232</ele>
        <time>2011-05-11T09:44:49Z</time>
      </trkpt>
      <trkpt lat="45.15668" lon="5.75605">
        <ele>233.1</ele>
        <time>2011-05-11T09:44:52Z</time>
      </trkpt>
      <trkpt lat="45.15672" lon="5.75594">
        <ele>233.4</ele>
        <time>2011-05-11T09:44:56Z</time>
      </trkpt>
      <trkpt lat="45.15668" lon="5.75583">
        <ele>233.2</ele>
        <time>2011-05-11T09:45:00Z</time>
      </trkpt>
      <trkpt lat="45.15664" lon="5.75575">
        <ele>233.2</ele>
        <time>2011-05-11T09:45:03Z</time>
      </trkpt>
      <trkpt lat="45.15661" lon="5.75567">
        <ele>232.9</ele>
        <time>2011-05-11T09:45:06Z</time>
      </trkpt>
      <trkpt lat="45.15656" lon="5.75556">
        <ele>232.3</ele>
        <time>2011-05-11T09:45:10Z</time>
      </trkpt>
      <trkpt lat="45.15653" lon="5.75545">
        <ele>232.8</ele>
        <time>2011-05-11T09:45:14Z</time>
      </trkpt>
      <trkpt lat="45.15653" lon="5.75532">
        <ele>232.7</ele>
        <time>2011-05-11T09:45:18Z</time>
      </trkpt>
      <trkpt lat="45.15654" lon="5.75522">
        <ele>231.7</ele>
        <time>2011-05-11T09:45:21Z</time>
      </trkpt>
      <trkpt lat="45.15658" lon="5.75512">
        <ele>232.7</ele>
        <time>2011-05-11T09:45:24Z</time>
      </trkpt>
      <trkpt lat="45.15662" lon="5.75505">
        <ele>232.5</ele>
        <time>2011-05-11T09:45:27Z</time>
      </trkpt>
      <trkpt lat="45.15668" lon="5.75498">
        <ele>232.9</ele>
        <time>2011-05-11T09:45:30Z</time>
      </trkpt>
      <trkpt lat="45.15674" lon="5.75492">
        <ele>233.4</ele>
        <time>2011-05-11T09:45:33Z</time>
      </trkpt>
      <trkpt lat="45.15679" lon="5.75486">
        <ele>233.6</ele>
        <time>2011-05-11T09:45:36Z</time>
      </trkpt>
      <trkpt lat="45.15685" lon="5.7548">
        <ele>233.2</ele>
        <time>2011-05-11T09:45:39Z</time>
      </trkpt>
      <trkpt lat="45.15691" lon="5.75473">
        <ele>232.9</ele>
        <time>2011-05-11T09:45:42Z</time>
      </trkpt>
      <trkpt lat="45.15692" lon="5.75471">
        <ele>232.9</ele>
        <time>2011-05-11T09:45:43Z</time>
      </trkpt>
      <trkpt lat="45.15702" lon="5.75461">
        <ele>232.5</ele>
        <time>2011-05-11T09:45:48Z</time>
      </trkpt>
      <trkpt lat="45.15708" lon="5.75455">
        <ele>232.7</ele>
        <time>2011-05-11T09:45:51Z</time>
      </trkpt>
      <trkpt lat="45.15715" lon="5.7545">
        <ele>232.5</ele>
        <time>2011-05-11T09:45:54Z</time>
      </trkpt>
      <trkpt lat="45.15721" lon="5.75447">
        <ele>232.5</ele>
        <time>2011-05-11T09:45:57Z</time>
      </trkpt>
      <trkpt lat="45.15727" lon="5.7544">
        <ele>232.7</ele>
        <time>2011-05-11T09:46:00Z</time>
      </trkpt>
      <trkpt lat="45.15733" lon="5.75435">
        <ele>232.2</ele>
        <time>2011-05-11T09:46:03Z</time>
      </trkpt>
      <trkpt lat="45.15738" lon="5.75428">
        <ele>232</ele>
        <time>2011-05-11T09:46:06Z</time>
      </trkpt>
      <trkpt lat="45.15739" lon="5.75417">
        <ele>232.5</ele>
        <time>2011-05-11T09:46:10Z</time>
      </trkpt>
      <trkpt lat="45.15734" lon="5.75406">
        <ele>232</ele>
        <time>2011-05-11T09:46:14Z</time>
      </trkpt>
      <trkpt lat="45.1573" lon="5.75398">
        <ele>231.8</ele>
        <time>2011-05-11T09:46:17Z</time>
      </trkpt>
      <trkpt lat="45.15728" lon="5.75388">
        <ele>231.9</ele>
        <time>2011-05-11T09:46:20Z</time>
      </trkpt>
      <trkpt lat="45.15729" lon="5.75378">
        <ele>232</ele>
        <time>2011-05-11T09:46:23Z</time>
      </trkpt>
      <trkpt lat="45.15733" lon="5.7537">
        <ele>231.8</ele>
        <time>2011-05-11T09:46:26Z</time>
      </trkpt>
      <trkpt lat="45.15738" lon="5.75363">
        <ele>231.7</ele>
        <time>2011-05-11T09:46:29Z</time>
      </trkpt>
      <trkpt lat="45.15744" lon="5.75357">
        <ele>231.8</ele>
        <time>2011-05-11T09:46:32Z</time>
      </trkpt>
      <trkpt lat="45.1575" lon="5.75351">
        <ele>232</ele>
        <time>2011-05-11T09:46:35Z</time>
      </trkpt>
      <trkpt lat="45.15756" lon="5.75345">
        <ele>232.2</ele>
        <time>2011-05-11T09:46:38Z</time>
      </trkpt>
      <trkpt lat="45.15761" lon="5.75338">
        <ele>232.5</ele>
        <time>2011-05-11T09:46:41Z</time>
      </trkpt>
      <trkpt lat="45.15766" lon="5.7533">
        <ele>232.7</ele>
        <time>2011-05-11T09:46:44Z</time>
      </trkpt>
      <trkpt lat="45.15767" lon="5.75327">
        <ele>232.8</ele>
        <time>2011-05-11T09:46:45Z</time>
      </trkpt>
      <trkpt lat="45.15778" lon="5.75314">
        <ele>232.4</ele>
        <time>2011-05-11T09:46:51Z</time>
      </trkpt>
      <trkpt lat="45.15784" lon="5.75309">
        <ele>232.3</ele>
        <time>2011-05-11T09:46:54Z</time>
      </trkpt>
      <trkpt lat="45.1579" lon="5.75304">
        <ele>232</ele>
        <time>2011-05-11T09:46:57Z</time>
      </trkpt>
      <trkpt lat="45.15796" lon="5.75298">
        <ele>232</ele>
        <time>2011-05-11T09:47:00Z</time>
      </trkpt>
      <trkpt lat="45.15803" lon="5.75293">
        <ele>232.5</ele>
        <time>2011-05-11T09:47:03Z</time>
      </trkpt>
      <trkpt lat="45.15809" lon="5.7529">
        <ele>231.7</ele>
        <time>2011-05-11T09:47:06Z</time>
      </trkpt>
      <trkpt lat="45.15817" lon="5.75285">
        <ele>232.4</ele>
        <time>2011-05-11T09:47:10Z</time>
      </trkpt>
      <trkpt lat="45.15823" lon="5.75279">
        <ele>232.5</ele>
        <time>2011-05-11T09:47:13Z</time>
      </trkpt>
      <trkpt lat="45.15829" lon="5.75273">
        <ele>232.8</ele>
        <time>2011-05-11T09:47:16Z</time>
      </trkpt>
      <trkpt lat="45.15835" lon="5.75266">
        <ele>232.9</ele>
        <time>2011-05-11T09:47:20Z</time>
      </trkpt>
      <trkpt lat="45.15842" lon="5.75258">
        <ele>232.6</ele>
        <time>2011-05-11T09:47:24Z</time>
      </trkpt>
      <trkpt lat="45.15848" lon="5.75252">
        <ele>232.3</ele>
        <time>2011-05-11T09:47:27Z</time>
      </trkpt>
      <trkpt lat="45.15853" lon="5.75246">
        <ele>232.3</ele>
        <time>2011-05-11T09:47:30Z</time>
      </trkpt>
      <trkpt lat="45.15859" lon="5.7524">
        <ele>232.1</ele>
        <time>2011-05-11T09:47:33Z</time>
      </trkpt>
      <trkpt lat="45.15864" lon="5.75233">
        <ele>232.1</ele>
        <time>2011-05-11T09:47:36Z</time>
      </trkpt>
      <trkpt lat="45.1587" lon="5.75226">
        <ele>232</ele>
        <time>2011-05-11T09:47:39Z</time>
      </trkpt>
      <trkpt lat="45.15876" lon="5.7522">
        <ele>231.9</ele>
        <time>2011-05-11T09:47:42Z</time>
      </trkpt>
      <trkpt lat="45.15882" lon="5.75214">
        <ele>231.9</ele>
        <time>2011-05-11T09:47:45Z</time>
      </trkpt>
      <trkpt lat="45.15884" lon="5.75212">
        <ele>231.9</ele>
        <time>2011-05-11T09:47:46Z</time>
      </trkpt>
      <trkpt lat="45.15893" lon="5.75202">
        <ele>232</ele>
        <time>2011-05-11T09:47:51Z</time>
      </trkpt>
      <trkpt lat="45.15898" lon="5.75195">
        <ele>231.7</ele>
        <time>2011-05-11T09:47:54Z</time>
      </trkpt>
      <trkpt lat="45.15904" lon="5.75187">
        <ele>231.6</ele>
        <time>2011-05-11T09:47:57Z</time>
      </trkpt>
      <trkpt lat="45.1591" lon="5.7518">
        <ele>231.2</ele>
        <time>2011-05-11T09:48:00Z</time>
      </trkpt>
      <trkpt lat="45.15916" lon="5.75172">
        <ele>232.2</ele>
        <time>2011-05-11T09:48:03Z</time>
      </trkpt>
      <trkpt lat="45.15922" lon="5.75165">
        <ele>232.1</ele>
        <time>2011-05-11T09:48:06Z</time>
      </trkpt>
      <trkpt lat="45.15929" lon="5.75158">
        <ele>232.2</ele>
        <time>2011-05-11T09:48:09Z</time>
      </trkpt>
      <trkpt lat="45.15935" lon="5.75152">
        <ele>232.5</ele>
        <time>2011-05-11T09:48:12Z</time>
      </trkpt>
      <trkpt lat="45.1594" lon="5.75145">
        <ele>231.3</ele>
        <time>2011-05-11T09:48:15Z</time>
      </trkpt>
      <trkpt lat="45.15949" lon="5.75141">
        <ele>231.3</ele>
        <time>2011-05-11T09:48:19Z</time>
      </trkpt>
      <trkpt lat="45.15957" lon="5.75138">
        <ele>232.3</ele>
        <time>2011-05-11T09:48:24Z</time>
      </trkpt>
      <trkpt lat="45.15964" lon="5.75138">
        <ele>233.8</ele>
        <time>2011-05-11T09:48:29Z</time>
      </trkpt>
      <trkpt lat="45.15971" lon="5.75144">
        <ele>235.2</ele>
        <time>2011-05-11T09:48:33Z</time>
      </trkpt>
      <trkpt lat="45.15978" lon="5.75149">
        <ele>235.7</ele>
        <time>2011-05-11T09:48:37Z</time>
      </trkpt>
      <trkpt lat="45.15985" lon="5.75143">
        <ele>236.4</ele>
        <time>2011-05-11T09:48:41Z</time>
      </trkpt>
      <trkpt lat="45.15991" lon="5.75135">
        <ele>237.9</ele>
        <time>2011-05-11T09:48:45Z</time>
      </trkpt>
      <trkpt lat="45.15997" lon="5.75126">
        <ele>238.3</ele>
        <time>2011-05-11T09:48:49Z</time>
      </trkpt>
      <trkpt lat="45.15999" lon="5.75123">
        <ele>238.4</ele>
        <time>2011-05-11T09:48:50Z</time>
      </trkpt>
      <trkpt lat="45.16006" lon="5.7511">
        <ele>238.5</ele>
        <time>2011-05-11T09:48:55Z</time>
      </trkpt>
      <trkpt lat="45.16011" lon="5.75102">
        <ele>238.2</ele>
        <time>2011-05-11T09:48:58Z</time>
      </trkpt>
      <trkpt lat="45.16016" lon="5.75094">
        <ele>238.2</ele>
        <time>2011-05-11T09:49:01Z</time>
      </trkpt>
      <trkpt lat="45.1602" lon="5.75086">
        <ele>238.3</ele>
        <time>2011-05-11T09:49:04Z</time>
      </trkpt>
      <trkpt lat="45.16025" lon="5.75078">
        <ele>238.7</ele>
        <time>2011-05-11T09:49:07Z</time>
      </trkpt>
      <trkpt lat="45.16031" lon="5.75068">
        <ele>238.9</ele>
        <time>2011-05-11T09:49:11Z</time>
      </trkpt>
      <trkpt lat="45.16032" lon="5.75056">
        <ele>238.5</ele>
        <time>2011-05-11T09:49:15Z</time>
      </trkpt>
      <trkpt lat="45.16028" lon="5.75045">
        <ele>237.9</ele>
        <time>2011-05-11T09:49:19Z</time>
      </trkpt>
      <trkpt lat="45.16023" lon="5.75039">
        <ele>237.2</ele>
        <time>2011-05-11T09:49:22Z</time>
      </trkpt>
      <trkpt lat="45.16017" lon="5.75034">
        <ele>236.4</ele>
        <time>2011-05-11T09:49:25Z</time>
      </trkpt>
      <trkpt lat="45.16011" lon="5.75025">
        <ele>235.2</ele>
        <time>2011-05-11T09:49:29Z</time>
      </trkpt>
      <trkpt lat="45.16007" lon="5.75014">
        <ele>234.5</ele>
        <time>2011-05-11T09:49:33Z</time>
      </trkpt>
      <trkpt lat="45.16007" lon="5.75001">
        <ele>234.9</ele>
        <time>2011-05-11T09:49:37Z</time>
      </trkpt>
      <trkpt lat="45.16009" lon="5.7499">
        <ele>234.5</ele>
        <time>2011-05-11T09:49:41Z</time>
      </trkpt>
      <trkpt lat="45.16014" lon="5.7498">
        <ele>233</ele>
        <time>2011-05-11T09:49:45Z</time>
      </trkpt>
      <trkpt lat="45.16017" lon="5.74972">
        <ele>233.3</ele>
        <time>2011-05-11T09:49:48Z</time>
      </trkpt>
      <trkpt lat="45.16023" lon="5.74963">
        <ele>232.4</ele>
        <time>2011-05-11T09:49:51Z</time>
      </trkpt>
      <trkpt lat="45.16024" lon="5.7496">
        <ele>232.3</ele>
        <time>2011-05-11T09:49:52Z</time>
      </trkpt>
      <trkpt lat="45.16027" lon="5.74943">
        <ele>231.8</ele>
        <time>2011-05-11T09:49:57Z</time>
      </trkpt>
      <trkpt lat="45.16025" lon="5.74932">
        <ele>231.9</ele>
        <time>2011-05-11T09:50:00Z</time>
      </trkpt>
      <trkpt lat="45.16024" lon="5.74921">
        <ele>230.8</ele>
        <time>2011-05-11T09:50:03Z</time>
      </trkpt>
      <trkpt lat="45.16023" lon="5.7491">
        <ele>230.6</ele>
        <time>2011-05-11T09:50:06Z</time>
      </trkpt>
      <trkpt lat="45.16021" lon="5.749">
        <ele>231.1</ele>
        <time>2011-05-11T09:50:09Z</time>
      </trkpt>
      <trkpt lat="45.1602" lon="5.74889">
        <ele>231.3</ele>
        <time>2011-05-11T09:50:12Z</time>
      </trkpt>
      <trkpt lat="45.16019" lon="5.74879">
        <ele>231.9</ele>
        <time>2011-05-11T09:50:15Z</time>
      </trkpt>
      <trkpt lat="45.16015" lon="5.74869">
        <ele>231.4</ele>
        <time>2011-05-11T09:50:19Z</time>
      </trkpt>
      <trkpt lat="45.16012" lon="5.74858">
        <ele>231</ele>
        <time>2011-05-11T09:50:23Z</time>
      </trkpt>
      <trkpt lat="45.1601" lon="5.74847">
        <ele>231.1</ele>
        <time>2011-05-11T09:50:27Z</time>
      </trkpt>
      <trkpt lat="45.16007" lon="5.74837">
        <ele>230.9</ele>
        <time>2011-05-11T09:50:30Z</time>
      </trkpt>
      <trkpt lat="45.16004" lon="5.74826">
        <ele>231.1</ele>
        <time>2011-05-11T09:50:33Z</time>
      </trkpt>
      <trkpt lat="45.16002" lon="5.74814">
        <ele>231.2</ele>
        <time>2011-05-11T09:50:36Z</time>
      </trkpt>
      <trkpt lat="45.15999" lon="5.74803">
        <ele>231.1</ele>
        <time>2011-05-11T09:50:39Z</time>
      </trkpt>
      <trkpt lat="45.15995" lon="5.74793">
        <ele>230.8</ele>
        <time>2011-05-11T09:50:42Z</time>
      </trkpt>
      <trkpt lat="45.15992" lon="5.74783">
        <ele>230.7</ele>
        <time>2011-05-11T09:50:45Z</time>
      </trkpt>
      <trkpt lat="45.15988" lon="5.74773">
        <ele>230.8</ele>
        <time>2011-05-11T09:50:48Z</time>
      </trkpt>
      <trkpt lat="45.15983" lon="5.74767">
        <ele>231.7</ele>
        <time>2011-05-11T09:50:51Z</time>
      </trkpt>
      <trkpt lat="45.15976" lon="5.74762">
        <ele>231</ele>
        <time>2011-05-11T09:50:54Z</time>
      </trkpt>
      <trkpt lat="45.15974" lon="5.74761">
        <ele>231.2</ele>
        <time>2011-05-11T09:50:55Z</time>
      </trkpt>
      <trkpt lat="45.15963" lon="5.74756">
        <ele>231.1</ele>
        <time>2011-05-11T09:51:00Z</time>
      </trkpt>
      <trkpt lat="45.15955" lon="5.74755">
        <ele>231.7</ele>
        <time>2011-05-11T09:51:03Z</time>
      </trkpt>
      <trkpt lat="45.15948" lon="5.74749">
        <ele>232.8</ele>
        <time>2011-05-11T09:51:07Z</time>
      </trkpt>
      <trkpt lat="45.15947" lon="5.74739">
        <ele>232.5</ele>
        <time>2011-05-11T09:51:10Z</time>
      </trkpt>
      <trkpt lat="45.15948" lon="5.74727">
        <ele>232.3</ele>
        <time>2011-05-11T09:51:13Z</time>
      </trkpt>
      <trkpt lat="45.15948" lon="5.74717">
        <ele>232.1</ele>
        <time>2011-05-11T09:51:16Z</time>
      </trkpt>
    </trkseg>
  </trk>
</gpx>